sensor_id;sensor_type;location;lat;lon;timestamp;P1;durP1;ratioP1;P2;durP2;ratioP2
9102;SDS011;4587;51.434;6.788;2023-04-28T00:02:02;8.60;;;6.60;;
9102;SDS011;4587;51.434;6.788;2023-04-28T00:04:27;9.30;;;6.90;;
9102;SDS011;4587;51.434;6.788;2023-04-28T00:06:53;7.27;;;6.50;;
9102;SDS011;4587;51.434;6.788;2023-04-28T00:09:19;10.23;;;7.07;;
9102;SDS011;4587;51.434;6.788;2023-04-28T00:11:45;9.70;;;7.27;;
9102;SDS011;4587;51.434;6.788;2023-04-28T00:14:11;8.67;;;7.20;;
9102;SDS011;4587;51.434;6.788;2023-04-28T00:16:37;9.70;;;7.03;;
9102;SDS011;4587;51.434;6.788;2023-04-28T00:19:03;8.77;;;7.20;;
9102;SDS011;4587;51.434;6.788;2023-04-28T00:21:28;9.07;;;7.60;;
9102;SDS011;4587;51.434;6.788;2023-04-28T00:23:54;10.73;;;7.60;;
9102;SDS011;4587;51.434;6.788;2023-04-28T00:26:20;10.77;;;7.43;;
9102;SDS011;4587;51.434;6.788;2023-04-28T00:28:46;9.03;;;7.07;;
9102;SDS011;4587;51.434;6.788;2023-04-28T00:31:12;9.13;;;6.83;;
9102;SDS011;4587;51.434;6.788;2023-04-28T00:33:39;8.40;;;7.30;;
9102;SDS011;4587;51.434;6.788;2023-04-28T00:36:05;8.47;;;7.00;;
9102;SDS011;4587;51.434;6.788;2023-04-28T00:38:32;9.07;;;7.20;;
9102;SDS011;4587;51.434;6.788;2023-04-28T00:40:58;9.27;;;7.93;;
9102;SDS011;4587;51.434;6.788;2023-04-28T00:43:23;9.17;;;7.53;;
9102;SDS011;4587;51.434;6.788;2023-04-28T00:45:49;8.43;;;7.60;;
9102;SDS011;4587;51.434;6.788;2023-04-28T00:48:16;9.47;;;8.47;;
9102;SDS011;4587;51.434;6.788;2023-04-28T00:50:42;10.03;;;8.70;;
9102;SDS011;4587;51.434;6.788;2023-04-28T00:53:09;11.33;;;8.20;;
9102;SDS011;4587;51.434;6.788;2023-04-28T00:55:35;10.20;;;7.63;;
9102;SDS011;4587;51.434;6.788;2023-04-28T00:58:02;9.97;;;8.20;;
9102;SDS011;4587;51.434;6.788;2023-04-28T01:00:29;11.07;;;8.73;;
9102;SDS011;4587;51.434;6.788;2023-04-28T01:02:55;9.70;;;8.70;;
9102;SDS011;4587;51.434;6.788;2023-04-28T01:05:21;11.83;;;9.57;;
9102;SDS011;4587;51.434;6.788;2023-04-28T01:07:52;11.83;;;9.37;;
9102;SDS011;4587;51.434;6.788;2023-04-28T01:10:18;12.47;;;9.17;;
9102;SDS011;4587;51.434;6.788;2023-04-28T01:12:44;13.83;;;9.03;;
9102;SDS011;4587;51.434;6.788;2023-04-28T01:15:12;11.37;;;9.20;;
9102;SDS011;4587;51.434;6.788;2023-04-28T01:17:41;11.40;;;9.17;;
9102;SDS011;4587;51.434;6.788;2023-04-28T01:20:07;14.23;;;9.40;;
9102;SDS011;4587;51.434;6.788;2023-04-28T01:22:33;11.20;;;9.93;;
9102;SDS011;4587;51.434;6.788;2023-04-28T01:24:59;11.23;;;9.73;;
9102;SDS011;4587;51.434;6.788;2023-04-28T01:27:24;12.97;;;10.43;;
9102;SDS011;4587;51.434;6.788;2023-04-28T01:29:50;11.40;;;9.63;;
9102;SDS011;4587;51.434;6.788;2023-04-28T01:32:16;12.20;;;9.50;;
9102;SDS011;4587;51.434;6.788;2023-04-28T01:34:41;13.20;;;9.87;;
9102;SDS011;4587;51.434;6.788;2023-04-28T01:37:07;11.97;;;10.00;;
9102;SDS011;4587;51.434;6.788;2023-04-28T01:39:33;12.40;;;10.27;;
9102;SDS011;4587;51.434;6.788;2023-04-28T01:41:59;13.03;;;10.33;;
9102;SDS011;4587;51.434;6.788;2023-04-28T01:44:26;14.83;;;10.70;;
9102;SDS011;4587;51.434;6.788;2023-04-28T01:46:52;12.57;;;10.30;;
9102;SDS011;4587;51.434;6.788;2023-04-28T01:49:17;10.73;;;9.40;;
9102;SDS011;4587;51.434;6.788;2023-04-28T01:51:43;11.97;;;10.33;;
9102;SDS011;4587;51.434;6.788;2023-04-28T01:54:09;12.43;;;11.03;;
9102;SDS011;4587;51.434;6.788;2023-04-28T01:56:34;14.30;;;10.63;;
9102;SDS011;4587;51.434;6.788;2023-04-28T01:59:00;14.03;;;11.07;;
9102;SDS011;4587;51.434;6.788;2023-04-28T02:01:26;13.10;;;10.80;;
9102;SDS011;4587;51.434;6.788;2023-04-28T02:03:52;13.87;;;10.90;;
9102;SDS011;4587;51.434;6.788;2023-04-28T02:06:19;15.57;;;11.13;;
9102;SDS011;4587;51.434;6.788;2023-04-28T02:08:47;13.90;;;11.03;;
9102;SDS011;4587;51.434;6.788;2023-04-28T02:11:13;13.07;;;11.40;;
9102;SDS011;4587;51.434;6.788;2023-04-28T02:13:39;12.30;;;10.77;;
9102;SDS011;4587;51.434;6.788;2023-04-28T02:16:05;14.43;;;12.00;;
9102;SDS011;4587;51.434;6.788;2023-04-28T02:18:31;15.33;;;12.20;;
9102;SDS011;4587;51.434;6.788;2023-04-28T02:20:56;15.17;;;11.30;;
9102;SDS011;4587;51.434;6.788;2023-04-28T02:23:22;13.97;;;11.47;;
9102;SDS011;4587;51.434;6.788;2023-04-28T02:25:48;14.27;;;11.07;;
9102;SDS011;4587;51.434;6.788;2023-04-28T02:28:13;14.87;;;11.80;;
9102;SDS011;4587;51.434;6.788;2023-04-28T02:30:39;18.43;;;12.17;;
9102;SDS011;4587;51.434;6.788;2023-04-28T02:33:05;15.10;;;11.80;;
9102;SDS011;4587;51.434;6.788;2023-04-28T02:35:30;14.33;;;10.97;;
9102;SDS011;4587;51.434;6.788;2023-04-28T02:37:56;13.87;;;11.60;;
9102;SDS011;4587;51.434;6.788;2023-04-28T02:40:22;16.20;;;11.77;;
9102;SDS011;4587;51.434;6.788;2023-04-28T02:42:47;13.20;;;11.80;;
9102;SDS011;4587;51.434;6.788;2023-04-28T02:45:13;13.13;;;11.00;;
9102;SDS011;4587;51.434;6.788;2023-04-28T02:47:39;14.03;;;12.17;;
9102;SDS011;4587;51.434;6.788;2023-04-28T02:50:04;16.33;;;11.87;;
9102;SDS011;4587;51.434;6.788;2023-04-28T02:52:31;16.30;;;12.37;;
9102;SDS011;4587;51.434;6.788;2023-04-28T02:54:56;13.63;;;11.33;;
9102;SDS011;4587;51.434;6.788;2023-04-28T02:57:22;17.00;;;12.50;;
9102;SDS011;4587;51.434;6.788;2023-04-28T02:59:48;20.23;;;12.67;;
9102;SDS011;4587;51.434;6.788;2023-04-28T03:02:14;16.40;;;12.13;;
9102;SDS011;4587;51.434;6.788;2023-04-28T03:04:40;14.43;;;12.73;;
9102;SDS011;4587;51.434;6.788;2023-04-28T03:07:06;14.67;;;12.73;;
9102;SDS011;4587;51.434;6.788;2023-04-28T03:09:31;14.47;;;12.60;;
9102;SDS011;4587;51.434;6.788;2023-04-28T03:11:57;17.57;;;13.13;;
9102;SDS011;4587;51.434;6.788;2023-04-28T03:14:23;15.90;;;12.20;;
9102;SDS011;4587;51.434;6.788;2023-04-28T03:16:49;16.33;;;13.13;;
9102;SDS011;4587;51.434;6.788;2023-04-28T03:19:14;16.00;;;12.97;;
9102;SDS011;4587;51.434;6.788;2023-04-28T03:21:40;18.40;;;13.00;;
9102;SDS011;4587;51.434;6.788;2023-04-28T03:24:06;16.13;;;13.10;;
9102;SDS011;4587;51.434;6.788;2023-04-28T03:26:32;14.60;;;12.40;;
9102;SDS011;4587;51.434;6.788;2023-04-28T03:28:57;15.20;;;12.87;;
9102;SDS011;4587;51.434;6.788;2023-04-28T03:31:23;14.97;;;12.20;;
9102;SDS011;4587;51.434;6.788;2023-04-28T03:33:49;15.80;;;11.30;;
9102;SDS011;4587;51.434;6.788;2023-04-28T03:36:15;15.67;;;12.60;;
9102;SDS011;4587;51.434;6.788;2023-04-28T03:38:40;16.57;;;11.93;;
9102;SDS011;4587;51.434;6.788;2023-04-28T03:41:06;14.00;;;11.97;;
9102;SDS011;4587;51.434;6.788;2023-04-28T03:43:32;17.30;;;12.73;;
9102;SDS011;4587;51.434;6.788;2023-04-28T03:45:59;13.63;;;11.97;;
9102;SDS011;4587;51.434;6.788;2023-04-28T03:48:25;13.93;;;12.10;;
9102;SDS011;4587;51.434;6.788;2023-04-28T03:50:51;12.83;;;11.30;;
9102;SDS011;4587;51.434;6.788;2023-04-28T03:53:16;12.87;;;11.27;;
9102;SDS011;4587;51.434;6.788;2023-04-28T03:55:42;13.63;;;11.70;;
9102;SDS011;4587;51.434;6.788;2023-04-28T03:58:08;16.70;;;11.83;;
9102;SDS011;4587;51.434;6.788;2023-04-28T04:00:34;11.80;;;10.50;;
9102;SDS011;4587;51.434;6.788;2023-04-28T04:03:00;12.27;;;10.50;;
9102;SDS011;4587;51.434;6.788;2023-04-28T04:05:25;12.37;;;10.57;;
9102;SDS011;4587;51.434;6.788;2023-04-28T04:07:51;11.23;;;9.53;;
9102;SDS011;4587;51.434;6.788;2023-04-28T04:10:17;11.80;;;9.93;;
9102;SDS011;4587;51.434;6.788;2023-04-28T04:12:42;12.23;;;9.40;;
9102;SDS011;4587;51.434;6.788;2023-04-28T04:15:08;11.33;;;8.67;;
9102;SDS011;4587;51.434;6.788;2023-04-28T04:17:34;11.83;;;8.70;;
9102;SDS011;4587;51.434;6.788;2023-04-28T04:20:00;11.57;;;8.47;;
9102;SDS011;4587;51.434;6.788;2023-04-28T04:22:26;9.93;;;8.77;;
9102;SDS011;4587;51.434;6.788;2023-04-28T04:24:51;12.43;;;8.67;;
9102;SDS011;4587;51.434;6.788;2023-04-28T04:27:17;10.00;;;8.23;;
9102;SDS011;4587;51.434;6.788;2023-04-28T04:29:43;10.23;;;9.13;;
9102;SDS011;4587;51.434;6.788;2023-04-28T04:32:09;11.93;;;9.00;;
9102;SDS011;4587;51.434;6.788;2023-04-28T04:34:35;10.73;;;8.60;;
9102;SDS011;4587;51.434;6.788;2023-04-28T04:37:00;9.57;;;8.57;;
9102;SDS011;4587;51.434;6.788;2023-04-28T04:39:26;11.87;;;8.63;;
9102;SDS011;4587;51.434;6.788;2023-04-28T04:41:52;9.03;;;8.10;;
9102;SDS011;4587;51.434;6.788;2023-04-28T04:44:17;10.43;;;8.53;;
9102;SDS011;4587;51.434;6.788;2023-04-28T04:46:43;10.20;;;8.93;;
9102;SDS011;4587;51.434;6.788;2023-04-28T04:49:10;9.80;;;8.60;;
9102;SDS011;4587;51.434;6.788;2023-04-28T04:51:36;11.13;;;8.33;;
9102;SDS011;4587;51.434;6.788;2023-04-28T04:54:02;13.27;;;9.77;;
9102;SDS011;4587;51.434;6.788;2023-04-28T04:56:27;12.07;;;9.20;;
9102;SDS011;4587;51.434;6.788;2023-04-28T04:58:53;12.37;;;9.70;;
9102;SDS011;4587;51.434;6.788;2023-04-28T05:01:19;12.17;;;9.57;;
9102;SDS011;4587;51.434;6.788;2023-04-28T05:03:44;9.73;;;8.57;;
9102;SDS011;4587;51.434;6.788;2023-04-28T05:06:10;14.03;;;9.43;;
9102;SDS011;4587;51.434;6.788;2023-04-28T05:08:36;12.80;;;9.53;;
9102;SDS011;4587;51.434;6.788;2023-04-28T05:11:01;11.00;;;9.60;;
9102;SDS011;4587;51.434;6.788;2023-04-28T05:13:27;11.43;;;9.43;;
9102;SDS011;4587;51.434;6.788;2023-04-28T05:15:52;10.60;;;9.23;;
9102;SDS011;4587;51.434;6.788;2023-04-28T05:18:18;10.80;;;9.37;;
9102;SDS011;4587;51.434;6.788;2023-04-28T05:20:44;10.43;;;9.43;;
9102;SDS011;4587;51.434;6.788;2023-04-28T05:23:09;10.50;;;8.80;;
9102;SDS011;4587;51.434;6.788;2023-04-28T05:25:35;11.13;;;8.70;;
9102;SDS011;4587;51.434;6.788;2023-04-28T05:28:01;9.37;;;8.37;;
9102;SDS011;4587;51.434;6.788;2023-04-28T05:30:31;9.90;;;8.73;;
9102;SDS011;4587;51.434;6.788;2023-04-28T05:32:57;11.17;;;8.70;;
9102;SDS011;4587;51.434;6.788;2023-04-28T05:35:23;10.57;;;9.07;;
9102;SDS011;4587;51.434;6.788;2023-04-28T05:37:48;11.57;;;8.83;;
9102;SDS011;4587;51.434;6.788;2023-04-28T05:40:14;11.43;;;8.40;;
9102;SDS011;4587;51.434;6.788;2023-04-28T05:42:40;10.10;;;9.10;;
9102;SDS011;4587;51.434;6.788;2023-04-28T05:45:06;10.73;;;8.87;;
9102;SDS011;4587;51.434;6.788;2023-04-28T05:47:32;9.87;;;8.83;;
9102;SDS011;4587;51.434;6.788;2023-04-28T05:49:58;12.67;;;8.87;;
9102;SDS011;4587;51.434;6.788;2023-04-28T05:52:23;10.40;;;8.70;;
9102;SDS011;4587;51.434;6.788;2023-04-28T05:54:49;9.50;;;8.60;;
9102;SDS011;4587;51.434;6.788;2023-04-28T05:57:15;12.87;;;9.00;;
9102;SDS011;4587;51.434;6.788;2023-04-28T05:59:40;9.57;;;8.67;;
9102;SDS011;4587;51.434;6.788;2023-04-28T06:02:06;11.17;;;9.43;;
9102;SDS011;4587;51.434;6.788;2023-04-28T06:04:32;11.50;;;9.37;;
9102;SDS011;4587;51.434;6.788;2023-04-28T06:06:58;10.73;;;9.27;;
9102;SDS011;4587;51.434;6.788;2023-04-28T06:09:23;10.73;;;9.30;;
9102;SDS011;4587;51.434;6.788;2023-04-28T06:11:49;11.97;;;9.37;;
9102;SDS011;4587;51.434;6.788;2023-04-28T06:14:15;10.67;;;9.17;;
9102;SDS011;4587;51.434;6.788;2023-04-28T06:16:40;10.20;;;9.10;;
9102;SDS011;4587;51.434;6.788;2023-04-28T06:19:06;10.83;;;9.00;;
9102;SDS011;4587;51.434;6.788;2023-04-28T06:21:32;10.00;;;9.00;;
9102;SDS011;4587;51.434;6.788;2023-04-28T06:23:58;13.17;;;9.13;;
9102;SDS011;4587;51.434;6.788;2023-04-28T06:26:23;11.67;;;8.97;;
9102;SDS011;4587;51.434;6.788;2023-04-28T06:28:49;12.30;;;8.87;;
9102;SDS011;4587;51.434;6.788;2023-04-28T06:31:15;11.73;;;8.20;;
9102;SDS011;4587;51.434;6.788;2023-04-28T06:33:41;11.10;;;8.77;;
9102;SDS011;4587;51.434;6.788;2023-04-28T06:36:06;11.03;;;9.00;;
9102;SDS011;4587;51.434;6.788;2023-04-28T06:38:32;10.80;;;8.60;;
9102;SDS011;4587;51.434;6.788;2023-04-28T06:40:58;9.90;;;8.40;;
9102;SDS011;4587;51.434;6.788;2023-04-28T06:43:24;11.17;;;9.70;;
9102;SDS011;4587;51.434;6.788;2023-04-28T06:45:49;11.83;;;8.77;;
9102;SDS011;4587;51.434;6.788;2023-04-28T06:48:15;11.73;;;9.03;;
9102;SDS011;4587;51.434;6.788;2023-04-28T06:50:41;11.93;;;8.77;;
9102;SDS011;4587;51.434;6.788;2023-04-28T06:53:06;9.80;;;8.80;;
9102;SDS011;4587;51.434;6.788;2023-04-28T06:55:32;11.47;;;8.67;;
9102;SDS011;4587;51.434;6.788;2023-04-28T06:57:59;10.70;;;8.33;;
9102;SDS011;4587;51.434;6.788;2023-04-28T07:00:25;8.27;;;7.47;;
9102;SDS011;4587;51.434;6.788;2023-04-28T07:02:51;11.57;;;7.60;;
9102;SDS011;4587;51.434;6.788;2023-04-28T07:05:16;9.77;;;7.57;;
9102;SDS011;4587;51.434;6.788;2023-04-28T07:07:42;8.07;;;7.03;;
9102;SDS011;4587;51.434;6.788;2023-04-28T07:10:09;9.50;;;6.93;;
9102;SDS011;4587;51.434;6.788;2023-04-28T07:12:35;7.80;;;6.97;;
9102;SDS011;4587;51.434;6.788;2023-04-28T07:15:01;9.17;;;7.30;;
9102;SDS011;4587;51.434;6.788;2023-04-28T07:17:27;10.83;;;6.70;;
9102;SDS011;4587;51.434;6.788;2023-04-28T07:19:52;7.63;;;6.83;;
9102;SDS011;4587;51.434;6.788;2023-04-28T07:22:18;8.50;;;7.10;;
9102;SDS011;4587;51.434;6.788;2023-04-28T07:24:43;7.87;;;6.07;;
9102;SDS011;4587;51.434;6.788;2023-04-28T07:27:09;9.93;;;5.93;;
9102;SDS011;4587;51.434;6.788;2023-04-28T07:29:35;7.33;;;5.90;;
9102;SDS011;4587;51.434;6.788;2023-04-28T07:32:01;8.73;;;6.30;;
9102;SDS011;4587;51.434;6.788;2023-04-28T07:34:29;7.83;;;5.30;;
9102;SDS011;4587;51.434;6.788;2023-04-28T07:36:55;7.23;;;5.60;;
9102;SDS011;4587;51.434;6.788;2023-04-28T07:39:21;7.30;;;5.23;;
9102;SDS011;4587;51.434;6.788;2023-04-28T07:41:46;5.77;;;5.00;;
9102;SDS011;4587;51.434;6.788;2023-04-28T07:44:12;7.50;;;5.67;;
9102;SDS011;4587;51.434;6.788;2023-04-28T07:46:38;7.07;;;5.40;;
9102;SDS011;4587;51.434;6.788;2023-04-28T07:49:03;5.37;;;4.87;;
9102;SDS011;4587;51.434;6.788;2023-04-28T07:51:29;7.17;;;5.37;;
9102;SDS011;4587;51.434;6.788;2023-04-28T07:53:55;5.43;;;4.93;;
9102;SDS011;4587;51.434;6.788;2023-04-28T07:56:21;10.03;;;5.40;;
9102;SDS011;4587;51.434;6.788;2023-04-28T07:58:47;6.70;;;5.50;;
9102;SDS011;4587;51.434;6.788;2023-04-28T08:01:13;8.17;;;5.00;;
9102;SDS011;4587;51.434;6.788;2023-04-28T08:03:42;7.53;;;5.47;;
9102;SDS011;4587;51.434;6.788;2023-04-28T08:06:07;5.83;;;5.10;;
9102;SDS011;4587;51.434;6.788;2023-04-28T08:08:33;6.90;;;5.13;;
9102;SDS011;4587;51.434;6.788;2023-04-28T08:10:59;11.00;;;5.77;;
9102;SDS011;4587;51.434;6.788;2023-04-28T08:13:25;6.53;;;5.40;;
9102;SDS011;4587;51.434;6.788;2023-04-28T08:15:53;8.00;;;5.03;;
9102;SDS011;4587;51.434;6.788;2023-04-28T08:18:20;6.60;;;5.30;;
9102;SDS011;4587;51.434;6.788;2023-04-28T08:20:47;9.53;;;5.93;;
9102;SDS011;4587;51.434;6.788;2023-04-28T08:23:12;6.40;;;5.50;;
9102;SDS011;4587;51.434;6.788;2023-04-28T08:25:38;6.63;;;5.90;;
9102;SDS011;4587;51.434;6.788;2023-04-28T08:28:04;10.47;;;5.80;;
9102;SDS011;4587;51.434;6.788;2023-04-28T08:30:30;6.07;;;4.80;;
9102;SDS011;4587;51.434;6.788;2023-04-28T08:32:56;10.87;;;6.30;;
9102;SDS011;4587;51.434;6.788;2023-04-28T08:35:22;7.77;;;6.00;;
9102;SDS011;4587;51.434;6.788;2023-04-28T08:37:47;8.87;;;5.67;;
9102;SDS011;4587;51.434;6.788;2023-04-28T08:40:13;8.60;;;5.97;;
9102;SDS011;4587;51.434;6.788;2023-04-28T08:42:39;5.90;;;5.10;;
9102;SDS011;4587;51.434;6.788;2023-04-28T08:45:06;6.50;;;5.00;;
9102;SDS011;4587;51.434;6.788;2023-04-28T08:47:37;7.23;;;5.87;;
9102;SDS011;4587;51.434;6.788;2023-04-28T08:50:08;9.60;;;5.97;;
9102;SDS011;4587;51.434;6.788;2023-04-28T08:52:34;8.50;;;5.70;;
9102;SDS011;4587;51.434;6.788;2023-04-28T08:55:01;7.57;;;6.00;;
9102;SDS011;4587;51.434;6.788;2023-04-28T08:57:36;9.83;;;6.30;;
9102;SDS011;4587;51.434;6.788;2023-04-28T09:00:04;8.23;;;6.20;;
9102;SDS011;4587;51.434;6.788;2023-04-28T09:02:30;7.33;;;6.07;;
9102;SDS011;4587;51.434;6.788;2023-04-28T09:04:57;7.40;;;5.60;;
9102;SDS011;4587;51.434;6.788;2023-04-28T09:07:22;7.73;;;6.10;;
9102;SDS011;4587;51.434;6.788;2023-04-28T09:09:48;7.63;;;6.30;;
9102;SDS011;4587;51.434;6.788;2023-04-28T09:12:14;7.90;;;6.40;;
9102;SDS011;4587;51.434;6.788;2023-04-28T09:14:42;7.27;;;5.93;;
9102;SDS011;4587;51.434;6.788;2023-04-28T09:17:11;9.23;;;6.43;;
9102;SDS011;4587;51.434;6.788;2023-04-28T09:19:38;7.70;;;6.33;;
9102;SDS011;4587;51.434;6.788;2023-04-28T09:22:06;7.17;;;6.47;;
9102;SDS011;4587;51.434;6.788;2023-04-28T09:24:38;8.70;;;6.57;;
9102;SDS011;4587;51.434;6.788;2023-04-28T09:27:06;8.97;;;6.80;;
9102;SDS011;4587;51.434;6.788;2023-04-28T09:29:35;11.77;;;7.13;;
9102;SDS011;4587;51.434;6.788;2023-04-28T09:32:19;9.73;;;7.43;;
9102;SDS011;4587;51.434;6.788;2023-04-28T09:34:49;11.27;;;8.13;;
9102;SDS011;4587;51.434;6.788;2023-04-28T09:37:18;10.97;;;8.17;;
9102;SDS011;4587;51.434;6.788;2023-04-28T09:39:49;11.83;;;8.50;;
9102;SDS011;4587;51.434;6.788;2023-04-28T09:45:05;12.63;;;8.47;;
9102;SDS011;4587;51.434;6.788;2023-04-28T09:47:33;12.83;;;8.80;;
9102;SDS011;4587;51.434;6.788;2023-04-28T09:50:04;10.77;;;8.13;;
9102;SDS011;4587;51.434;6.788;2023-04-28T09:52:35;12.53;;;8.33;;
9102;SDS011;4587;51.434;6.788;2023-04-28T09:55:04;12.20;;;8.03;;
9102;SDS011;4587;51.434;6.788;2023-04-28T09:57:33;10.13;;;7.87;;
9102;SDS011;4587;51.434;6.788;2023-04-28T10:00:00;12.87;;;8.30;;
9102;SDS011;4587;51.434;6.788;2023-04-28T10:02:30;9.37;;;7.63;;
9102;SDS011;4587;51.434;6.788;2023-04-28T10:04:56;9.87;;;7.50;;
9102;SDS011;4587;51.434;6.788;2023-04-28T10:07:22;12.30;;;8.70;;
9102;SDS011;4587;51.434;6.788;2023-04-28T10:09:51;12.47;;;9.10;;
9102;SDS011;4587;51.434;6.788;2023-04-28T10:12:20;10.93;;;8.43;;
9102;SDS011;4587;51.434;6.788;2023-04-28T10:14:48;9.63;;;8.13;;
9102;SDS011;4587;51.434;6.788;2023-04-28T10:17:15;9.83;;;8.20;;
9102;SDS011;4587;51.434;6.788;2023-04-28T10:19:42;11.80;;;8.37;;
9102;SDS011;4587;51.434;6.788;2023-04-28T10:22:16;10.67;;;8.47;;
9102;SDS011;4587;51.434;6.788;2023-04-28T10:27:40;11.90;;;8.60;;
9102;SDS011;4587;51.434;6.788;2023-04-28T10:30:26;10.63;;;8.90;;
9102;SDS011;4587;51.434;6.788;2023-04-28T10:35:39;12.60;;;9.33;;
9102;SDS011;4587;51.434;6.788;2023-04-28T10:38:13;11.33;;;9.10;;
9102;SDS011;4587;51.434;6.788;2023-04-28T10:40:47;12.67;;;8.90;;
9102;SDS011;4587;51.434;6.788;2023-04-28T10:43:31;10.67;;;9.30;;
9102;SDS011;4587;51.434;6.788;2023-04-28T10:51:36;10.80;;;9.80;;
9102;SDS011;4587;51.434;6.788;2023-04-28T10:56:07;15.30;;;11.00;;
9102;SDS011;4587;51.434;6.788;2023-04-28T10:58:50;13.67;;;11.00;;
9102;SDS011;4587;51.434;6.788;2023-04-28T11:08:54;12.33;;;11.00;;
9102;SDS011;4587;51.434;6.788;2023-04-28T11:13:50;13.90;;;12.50;;
9102;SDS011;4587;51.434;6.788;2023-04-28T11:16:17;12.93;;;11.60;;
9102;SDS011;4587;51.434;6.788;2023-04-28T11:21:15;15.60;;;12.27;;
9102;SDS011;4587;51.434;6.788;2023-04-28T11:23:41;13.50;;;12.30;;
9102;SDS011;4587;51.434;6.788;2023-04-28T11:26:07;13.70;;;11.80;;
9102;SDS011;4587;51.434;6.788;2023-04-28T11:28:33;14.77;;;13.37;;
9102;SDS011;4587;51.434;6.788;2023-04-28T11:31:13;15.93;;;13.20;;
9102;SDS011;4587;51.434;6.788;2023-04-28T11:33:49;16.23;;;14.60;;
9102;SDS011;4587;51.434;6.788;2023-04-28T11:36:34;15.53;;;14.03;;
9102;SDS011;4587;51.434;6.788;2023-04-28T11:39:05;16.80;;;15.23;;
9102;SDS011;4587;51.434;6.788;2023-04-28T11:41:38;18.30;;;15.20;;
9102;SDS011;4587;51.434;6.788;2023-04-28T11:44:18;15.03;;;13.60;;
9102;SDS011;4587;51.434;6.788;2023-04-28T11:46:46;16.70;;;14.33;;
9102;SDS011;4587;51.434;6.788;2023-04-28T11:49:19;16.40;;;14.70;;
9102;SDS011;4587;51.434;6.788;2023-04-28T11:51:46;15.80;;;14.33;;
9102;SDS011;4587;51.434;6.788;2023-04-28T11:54:16;16.70;;;15.17;;
9102;SDS011;4587;51.434;6.788;2023-04-28T11:56:47;17.63;;;16.13;;
9102;SDS011;4587;51.434;6.788;2023-04-28T11:59:14;17.37;;;15.87;;
9102;SDS011;4587;51.434;6.788;2023-04-28T12:01:44;18.87;;;17.17;;
9102;SDS011;4587;51.434;6.788;2023-04-28T12:04:13;18.80;;;16.93;;
9102;SDS011;4587;51.434;6.788;2023-04-28T12:09:28;18.30;;;16.77;;
9102;SDS011;4587;51.434;6.788;2023-04-28T12:11:59;17.63;;;16.13;;
9102;SDS011;4587;51.434;6.788;2023-04-28T12:14:28;16.50;;;15.00;;
9102;SDS011;4587;51.434;6.788;2023-04-28T12:17:01;15.80;;;14.40;;
9102;SDS011;4587;51.434;6.788;2023-04-28T12:19:28;14.17;;;12.87;;
9102;SDS011;4587;51.434;6.788;2023-04-28T12:22:00;14.13;;;12.80;;
9102;SDS011;4587;51.434;6.788;2023-04-28T12:24:30;12.93;;;11.73;;
9102;SDS011;4587;51.434;6.788;2023-04-28T12:27:12;12.57;;;11.33;;
9102;SDS011;4587;51.434;6.788;2023-04-28T12:29:40;11.47;;;10.33;;
9102;SDS011;4587;51.434;6.788;2023-04-28T12:32:07;11.57;;;10.47;;
9102;SDS011;4587;51.434;6.788;2023-04-28T12:34:34;11.63;;;10.53;;
9102;SDS011;4587;51.434;6.788;2023-04-28T12:37:01;10.07;;;9.17;;
9102;SDS011;4587;51.434;6.788;2023-04-28T12:39:30;9.23;;;8.33;;
9102;SDS011;4587;51.434;6.788;2023-04-28T12:41:57;9.10;;;8.20;;
9102;SDS011;4587;51.434;6.788;2023-04-28T12:44:24;9.03;;;7.87;;
9102;SDS011;4587;51.434;6.788;2023-04-28T12:46:52;11.07;;;8.07;;
9102;SDS011;4587;51.434;6.788;2023-04-28T12:49:18;8.97;;;7.90;;
9102;SDS011;4587;51.434;6.788;2023-04-28T12:51:44;7.57;;;6.87;;
9102;SDS011;4587;51.434;6.788;2023-04-28T12:54:10;7.07;;;6.37;;
9102;SDS011;4587;51.434;6.788;2023-04-28T12:56:36;7.60;;;7.00;;
9102;SDS011;4587;51.434;6.788;2023-04-28T12:59:01;7.77;;;7.17;;
9102;SDS011;4587;51.434;6.788;2023-04-28T13:01:27;8.57;;;7.67;;
9102;SDS011;4587;51.434;6.788;2023-04-28T13:03:53;7.60;;;6.80;;
9102;SDS011;4587;51.434;6.788;2023-04-28T13:06:19;7.20;;;6.50;;
9102;SDS011;4587;51.434;6.788;2023-04-28T13:08:45;8.87;;;7.97;;
9102;SDS011;4587;51.434;6.788;2023-04-28T13:11:11;10.13;;;8.27;;
9102;SDS011;4587;51.434;6.788;2023-04-28T13:13:36;10.50;;;8.57;;
9102;SDS011;4587;51.434;6.788;2023-04-28T13:16:02;14.40;;;9.47;;
9102;SDS011;4587;51.434;6.788;2023-04-28T13:18:29;11.60;;;9.10;;
9102;SDS011;4587;51.434;6.788;2023-04-28T13:20:55;9.00;;;8.10;;
9102;SDS011;4587;51.434;6.788;2023-04-28T13:23:21;9.97;;;8.67;;
9102;SDS011;4587;51.434;6.788;2023-04-28T13:25:47;11.07;;;8.30;;
9102;SDS011;4587;51.434;6.788;2023-04-28T13:28:12;8.70;;;7.80;;
9102;SDS011;4587;51.434;6.788;2023-04-28T13:30:39;9.10;;;8.07;;
9102;SDS011;4587;51.434;6.788;2023-04-28T13:33:05;9.27;;;7.77;;
9102;SDS011;4587;51.434;6.788;2023-04-28T13:35:30;11.30;;;6.80;;
9102;SDS011;4587;51.434;6.788;2023-04-28T13:37:56;7.60;;;6.90;;
9102;SDS011;4587;51.434;6.788;2023-04-28T13:40:29;7.50;;;6.80;;
9102;SDS011;4587;51.434;6.788;2023-04-28T13:42:55;8.70;;;7.80;;
9102;SDS011;4587;51.434;6.788;2023-04-28T13:45:21;7.47;;;6.10;;
9102;SDS011;4587;51.434;6.788;2023-04-28T13:47:47;7.43;;;6.73;;
9102;SDS011;4587;51.434;6.788;2023-04-28T13:50:13;7.77;;;6.93;;
9102;SDS011;4587;51.434;6.788;2023-04-28T13:52:39;7.37;;;6.73;;
9102;SDS011;4587;51.434;6.788;2023-04-28T13:55:04;7.53;;;6.83;;
9102;SDS011;4587;51.434;6.788;2023-04-28T13:57:31;7.53;;;6.47;;
9102;SDS011;4587;51.434;6.788;2023-04-28T13:59:56;6.80;;;5.97;;
9102;SDS011;4587;51.434;6.788;2023-04-28T14:02:22;6.83;;;6.13;;
9102;SDS011;4587;51.434;6.788;2023-04-28T14:04:48;7.53;;;6.60;;
9102;SDS011;4587;51.434;6.788;2023-04-28T14:07:14;6.70;;;6.00;;
9102;SDS011;4587;51.434;6.788;2023-04-28T14:09:40;6.37;;;5.77;;
9102;SDS011;4587;51.434;6.788;2023-04-28T14:12:06;5.80;;;5.30;;
9102;SDS011;4587;51.434;6.788;2023-04-28T14:14:32;5.77;;;5.27;;
9102;SDS011;4587;51.434;6.788;2023-04-28T14:16:57;5.30;;;4.80;;
9102;SDS011;4587;51.434;6.788;2023-04-28T14:19:23;6.17;;;4.80;;
9102;SDS011;4587;51.434;6.788;2023-04-28T14:21:51;6.60;;;5.60;;
9102;SDS011;4587;51.434;6.788;2023-04-28T14:24:17;6.00;;;5.50;;
9102;SDS011;4587;51.434;6.788;2023-04-28T14:26:44;6.17;;;5.57;;
9102;SDS011;4587;51.434;6.788;2023-04-28T14:29:10;6.27;;;5.70;;
9102;SDS011;4587;51.434;6.788;2023-04-28T14:31:36;7.90;;;6.00;;
9102;SDS011;4587;51.434;6.788;2023-04-28T14:34:02;5.70;;;5.20;;
9102;SDS011;4587;51.434;6.788;2023-04-28T14:36:29;5.63;;;4.90;;
9102;SDS011;4587;51.434;6.788;2023-04-28T14:38:57;4.73;;;4.10;;
9102;SDS011;4587;51.434;6.788;2023-04-28T14:41:23;4.47;;;3.73;;
9102;SDS011;4587;51.434;6.788;2023-04-28T14:43:49;4.03;;;3.73;;
9102;SDS011;4587;51.434;6.788;2023-04-28T14:46:15;3.83;;;3.53;;
9102;SDS011;4587;51.434;6.788;2023-04-28T14:48:43;4.30;;;3.90;;
9102;SDS011;4587;51.434;6.788;2023-04-28T14:51:09;4.27;;;3.53;;
9102;SDS011;4587;51.434;6.788;2023-04-28T14:53:35;3.30;;;3.07;;
9102;SDS011;4587;51.434;6.788;2023-04-28T14:56:01;2.90;;;2.60;;
9102;SDS011;4587;51.434;6.788;2023-04-28T14:58:27;2.70;;;2.50;;
9102;SDS011;4587;51.434;6.788;2023-04-28T15:00:53;2.47;;;2.27;;
9102;SDS011;4587;51.434;6.788;2023-04-28T15:03:19;2.70;;;1.93;;
9102;SDS011;4587;51.434;6.788;2023-04-28T15:05:45;5.13;;;2.23;;
9102;SDS011;4587;51.434;6.788;2023-04-28T15:08:10;2.47;;;2.27;;
9102;SDS011;4587;51.434;6.788;2023-04-28T15:10:37;3.30;;;2.93;;
9102;SDS011;4587;51.434;6.788;2023-04-28T15:13:04;3.33;;;3.00;;
9102;SDS011;4587;51.434;6.788;2023-04-28T15:15:30;3.20;;;3.00;;
9102;SDS011;4587;51.434;6.788;2023-04-28T15:17:56;3.20;;;2.90;;
9102;SDS011;4587;51.434;6.788;2023-04-28T15:20:25;4.00;;;3.70;;
9102;SDS011;4587;51.434;6.788;2023-04-28T15:22:55;6.60;;;6.10;;
9102;SDS011;4587;51.434;6.788;2023-04-28T15:25:21;6.63;;;6.13;;
9102;SDS011;4587;51.434;6.788;2023-04-28T15:27:47;6.80;;;6.20;;
9102;SDS011;4587;51.434;6.788;2023-04-28T15:30:14;6.73;;;6.23;;
9102;SDS011;4587;51.434;6.788;2023-04-28T15:32:40;7.07;;;6.47;;